Time;durP1;ratioP1;P1;durP2;ratioP2;P2;SDS_P1;SDS_P2;PMS_P1;PMS_P2;Temp;Humidity;BMP_temperature;BMP_pressure;BME280_temperature;BME280_humidity;BME280_pressure;Samples;Min_cycle;Max_cycle;Signal;HPM_P1;HPM_P2
2021/04/11 00:00:24;;;;;;;2.60;1.87;;;;;;;15.15;36.93;96005.72;5031723;28;21190;-69
2021/04/11 00:02:49;;;;;;;2.87;2.03;;;;;;;15.14;37.22;95999.59;5033880;28;20734;-68
2021/04/11 00:05:16;;;;;;;4.20;2.73;;;;;;;15.09;37.29;95996.81;5034231;28;20521;-67
2021/04/11 00:07:42;;;;;;;3.17;2.33;;;;;;;15.02;37.65;95998.66;5037527;28;20684;-69
2021/04/11 00:10:16;;;;;;;3.73;2.03;;;;;;;14.69;38.30;95989.84;5040533;28;20435;-69
2021/04/11 00:12:42;;;;;;;3.70;2.37;;;;;;;14.67;38.43;95997.19;5040933;28;20664;-69
2021/04/11 00:15:08;;;;;;;5.07;2.10;;;;;;;14.69;38.27;95992.47;5035504;28;20434;-70
2021/04/11 00:17:34;;;;;;;3.10;2.03;;;;;;;14.38;39.06;95995.78;5032032;28;20187;-69
2021/04/11 00:19:59;;;;;;;3.30;2.20;;;;;;;14.58;38.84;95991.28;5031837;28;20549;-69
2021/04/11 00:22:25;;;;;;;2.53;1.70;;;;;;;14.71;38.44;95992.28;5033903;28;20211;-69
2021/04/11 00:24:51;;;;;;;5.90;1.97;;;;;;;14.65;38.51;95979.91;5034241;28;20257;-67
2021/04/11 00:27:16;;;;;;;3.83;2.00;;;;;;;14.59;38.65;95981.53;5033112;28;20180;-69
2021/04/11 00:29:43;;;;;;;3.60;2.30;;;;;;;14.65;38.63;95993.91;5029334;28;20195;-67
2021/04/11 00:32:09;;;;;;;7.70;2.83;;;;;;;14.62;38.82;95988.25;5031868;28;20191;-68
2021/04/11 00:34:34;;;;;;;5.17;2.77;;;;;;;14.61;38.54;95987.41;5032804;28;20452;-67
2021/04/11 00:37:00;;;;;;;3.83;2.50;;;;;;;14.57;38.98;95988.84;5032426;28;20222;-68
2021/04/11 00:39:25;;;;;;;6.10;3.03;;;;;;;14.36;39.23;95985.44;5033027;28;20651;-69
2021/04/11 00:41:53;;;;;;;3.87;2.10;;;;;;;14.35;39.41;95980.41;5032336;28;20567;-67
2021/04/11 00:44:20;;;;;;;3.33;2.20;;;;;;;14.32;39.32;95983.44;5031609;28;20206;-67
2021/04/11 00:46:56;;;;;;;4.03;2.30;;;;;;;14.18;39.94;95982.63;5023399;28;20484;-69
2021/04/11 00:49:26;;;;;;;3.37;2.40;;;;;;;14.15;39.86;95978.59;5031796;28;20430;-69
2021/04/11 00:51:52;;;;;;;2.20;2.00;;;;;;;14.20;39.64;95976.16;5032074;28;20415;-69
2021/04/11 00:54:18;;;;;;;5.00;2.27;;;;;;;14.02;40.23;95976.78;5031759;28;20819;-69
2021/04/11 00:56:44;;;;;;;3.17;2.37;;;;;;;14.17;39.95;95965.22;5032250;28;20426;-67
2021/04/11 00:59:10;;;;;;;4.10;2.10;;;;;;;14.14;40.05;95963.78;5027409;28;20565;-67
2021/04/11 01:01:37;;;;;;;4.27;2.60;;;;;;;14.07;40.60;95960.38;5032021;28;20211;-67
2021/04/11 01:04:05;;;;;;;2.67;2.33;;;;;;;14.07;40.26;95960.38;5031621;28;20831;-69
2021/04/11 01:06:38;;;;;;;3.57;2.50;;;;;;;14.10;40.20;95952.06;5031487;28;20423;-68
2021/04/11 01:09:32;;;;;;;3.20;2.20;;;;;;;14.12;40.24;95944.75;5027848;28;20438;-67
2021/04/11 01:11:59;;;;;;;2.67;2.00;;;;;;;14.13;40.21;95946.38;5025751;28;20461;-68
2021/04/11 01:14:30;;;;;;;4.73;2.93;;;;;;;14.16;40.15;95938.06;5031026;28;21090;-67
2021/04/11 01:16:57;;;;;;;3.87;2.43;;;;;;;14.15;40.24;95936.44;5013944;28;20431;-70
2021/04/11 01:19:27;;;;;;;4.03;3.63;;;;;;;14.07;40.27;95936.66;5024423;28;20474;-69
2021/04/11 01:22:05;;;;;;;3.73;2.50;;;;;;;14.09;40.21;95932.00;5030122;28;20542;-69
2021/04/11 01:24:50;;;;;;;2.60;2.37;;;;;;;14.13;40.28;95933.19;5031515;28;20442;-68
2021/04/11 01:27:27;;;;;;;4.03;2.40;;;;;;;14.09;40.66;95930.16;5029561;28;20422;-68
2021/04/11 01:29:54;;;;;;;3.10;2.40;;;;;;;14.17;40.39;95929.16;5030076;28;20480;-68
2021/04/11 01:32:20;;;;;;;5.10;2.90;;;;;;;14.16;40.43;95926.72;5030012;28;20477;-67
2021/04/11 01:34:46;;;;;;;4.53;2.47;;;;;;;14.11;40.76;95924.72;5032460;28;20802;-69
2021/04/11 01:37:14;;;;;;;4.03;2.30;;;;;;;14.12;40.86;95928.94;5031313;28;20194;-68
2021/04/11 01:39:42;;;;;;;4.60;2.43;;;;;;;14.11;40.53;95927.34;5032668;28;20427;-67
2021/04/11 01:42:09;;;;;;;2.60;2.30;;;;;;;14.13;40.66;95920.03;5032315;28;20431;-67
2021/04/11 01:44:38;;;;;;;2.80;2.47;;;;;;;14.13;40.60;95925.28;5029459;28;20461;-68
2021/04/11 01:47:04;;;;;;;3.97;2.47;;;;;;;14.11;40.66;95925.50;5030040;28;20874;-68
2021/04/11 01:49:30;;;;;;;2.23;2.03;;;;;;;14.09;40.72;95919.63;5030244;28;20556;-65
2021/04/11 01:52:10;;;;;;;2.20;1.97;;;;;;;13.85;41.34;95920.28;5012093;28;20426;-69
2021/04/11 01:54:36;;;;;;;2.23;1.90;;;;;;;13.93;41.22;95912.97;5030072;28;20286;-68
2021/04/11 01:57:20;;;;;;;5.60;2.20;;;;;;;14.09;40.97;95916.19;5029931;28;20771;-67
2021/04/11 01:59:45;;;;;;;3.90;1.90;;;;;;;14.13;40.86;95917.38;5026084;28;20421;-68
2021/04/11 02:02:14;;;;;;;3.80;1.93;;;;;;;14.15;40.86;95910.09;5029639;28;20423;-68
2021/04/11 02:04:40;;;;;;;3.03;2.10;;;;;;;14.16;40.91;95916.19;5029790;28;20203;-68
2021/04/11 02:07:07;;;;;;;5.63;1.97;;;;;;;14.07;40.93;95912.97;5023941;28;20419;-70
2021/04/11 02:09:36;;;;;;;3.10;2.50;;;;;;;13.96;41.10;95912.59;5028727;28;20434;-67
2021/04/11 02:12:05;;;;;;;2.93;2.10;;;;;;;13.82;41.44;95926.78;5028687;28;20422;-67
2021/04/11 02:14:30;;;;;;;2.67;2.10;;;;;;;14.01;41.47;95919.03;5030641;28;20537;-66
2021/04/11 02:16:57;;;;;;;3.40;2.00;;;;;;;14.07;41.38;95921.66;5035071;28;20509;-67
2021/04/11 02:19:28;;;;;;;2.27;1.90;;;;;;;14.09;41.44;95918.84;5028218;28;20221;-69
2021/04/11 02:21:59;;;;;;;2.37;2.17;;;;;;;13.91;42.32;95909.75;5033530;28;20539;-68
2021/04/11 02:24:25;;;;;;;3.40;2.17;;;;;;;14.06;41.81;95914.78;5034949;28;20449;-68
2021/04/11 02:26:51;;;;;;;3.73;2.20;;;;;;;14.12;41.92;95916.59;5033883;28;20459;-67
2021/04/11 02:29:20;;;;;;;3.37;2.07;;;;;;;14.09;41.89;95913.56;5028739;28;20201;-68
2021/04/11 02:31:46;;;;;;;5.43;2.03;;;;;;;14.13;42.08;95914.75;5032815;28;20430;-67
2021/04/11 02:34:14;;;;;;;2.53;2.23;;;;;;;14.12;42.20;95910.50;5034482;28;20495;-68
2021/04/11 02:36:53;;;;;;;3.30;1.97;;;;;;;14.05;42.49;95912.34;5033558;28;20562;-67
2021/04/11 02:39:21;;;;;;;5.43;1.87;;;;;;;13.94;42.94;95909.34;5033218;28;20410;-67
2021/04/11 02:41:50;;;;;;;5.17;2.50;;;;;;;13.97;42.71;95897.56;5032567;28;20458;-67
2021/04/11 02:44:16;;;;;;;6.03;2.50;;;;;;;14.12;42.47;95907.88;5034645;28;20956;-67
2021/04/11 02:46:43;;;;;;;3.30;2.33;;;;;;;14.18;42.52;95898.31;5034681;28;20429;-67
2021/04/11 02:49:11;;;;;;;3.20;2.50;;;;;;;14.09;42.58;95903.81;5033225;28;20438;-67
2021/04/11 02:51:37;;;;;;;2.90;2.10;;;;;;;14.08;42.85;95901.41;5033121;28;20446;-67
2021/04/11 02:54:05;;;;;;;2.43;2.23;;;;;;;14.09;42.91;95900.41;5034658;28;20442;-66
2021/04/11 02:56:31;;;;;;;2.80;2.33;;;;;;;14.16;42.47;95900.38;5033302;28;20423;-68
2021/04/11 02:58:57;;;;;;;2.40;2.13;;;;;;;14.17;42.25;95892.25;5028323;28;20484;-68
2021/04/11 03:01:31;;;;;;;3.10;2.10;;;;;;;14.11;42.27;95883.34;5032736;28;20257;-68
2021/04/11 03:03:57;;;;;;;2.93;2.17;;;;;;;14.12;42.39;95890.25;5033720;28;20306;-68
2021/04/11 03:06:26;;;;;;;2.40;1.83;;;;;;;14.11;42.33;95882.56;5007332;28;20772;-67
2021/04/11 03:08:55;;;;;;;3.40;2.00;;;;;;;14.16;42.18;95888.00;5012295;28;20654;-69
2021/04/11 03:11:43;;;;;;;1.70;1.53;;;;;;;14.20;41.86;95883.13;5017128;28;20438;-70
2021/04/11 03:14:11;;;;;;;3.73;1.80;;;;;;;14.09;42.31;95880.13;5024862;28;20457;-69
2021/04/11 03:16:38;;;;;;;5.17;1.67;;;;;;;14.18;41.98;95882.50;5022069;28;20499;-71
2021/04/11 03:19:04;;;;;;;2.70;1.93;;;;;;;14.22;41.99;95879.28;5014228;28;20510;-67
2021/04/11 03:21:30;;;;;;;4.03;2.33;;;;;;;14.21;41.72;95882.09;5029049;28;20558;-66
2021/04/11 03:23:56;;;;;;;1.90;1.60;;;;;;;14.17;41.79;95867.75;5029310;28;20824;-67
2021/04/11 03:26:29;;;;;;;3.50;2.03;;;;;;;14.20;42.00;95870.78;5013446;28;20427;-67
2021/04/11 03:28:59;;;;;;;5.40;1.93;;;;;;;14.17;42.14;95873.03;5029144;28;20904;-68
2021/04/11 03:31:30;;;;;;;4.17;2.20;;;;;;;14.13;42.34;95869.97;5012588;28;20960;-67
2021/04/11 03:33:57;;;;;;;4.23;1.87;;;;;;;14.10;42.21;95859.88;5012791;28;20447;-66
2021/04/11 03:36:24;;;;;;;4.70;2.17;;;;;;;14.13;42.36;95867.34;5016809;28;20938;-67
2021/04/11 03:38:50;;;;;;;2.20;2.00;;;;;;;14.10;42.14;95870.41;5017207;28;20483;-66
2021/04/11 03:41:17;;;;;;;1.90;1.63;;;;;;;14.04;42.16;95872.03;5012201;28;20554;-67
2021/04/11 03:43:49;;;;;;;4.20;1.90;;;;;;;13.98;42.59;95863.16;5013937;28;20457;-66
2021/04/11 03:46:29;;;;;;;2.40;2.20;;;;;;;14.02;42.32;95874.06;5011985;28;20435;-68
2021/04/11 03:49:03;;;;;;;2.57;1.90;;;;;;;14.06;42.14;95872.63;5014112;28;20430;-70
2021/04/11 03:51:30;;;;;;;3.30;1.90;;;;;;;14.04;42.60;95879.13;5005849;28;20423;-67
2021/04/11 03:54:14;;;;;;;2.47;1.87;;;;;;;13.95;42.62;95868.81;5011954;28;20455;-69
2021/04/11 03:56:55;;;;;;;3.13;2.13;;;;;;;13.83;42.57;95881.00;5013910;28;20941;-67
2021/04/11 03:59:25;;;;;;;5.53;1.77;;;;;;;13.89;42.84;95880.16;5004659;28;20962;-68
2021/04/11 04:01:53;;;;;;;5.20;1.83;;;;;;;13.97;42.41;95879.13;5012110;28;20541;-67
2021/04/11 04:04:21;;;;;;;2.10;1.90;;;;;;;13.99;42.54;95874.47;5028434;28;20477;-68
2021/04/11 04:07:20;;;;;;;2.40;1.80;;;;;;;13.98;42.65;95883.38;5013431;28;20955;-68
2021/04/11 04:09:55;;;;;;;3.40;2.07;;;;;;;13.98;42.47;95878.13;5010692;28;20471;-67
2021/04/11 04:12:23;;;;;;;2.97;1.70;;;;;;;13.94;42.48;95880.38;5011289;28;20423;-67
2021/04/11 04:15:13;;;;;;;5.10;2.00;;;;;;;13.94;42.39;95880.38;5013673;28;20822;-67
2021/04/11 04:17:42;;;;;;;3.10;1.70;;;;;;;13.82;42.58;95882.00;5014523;28;20439;-67
2021/04/11 04:20:16;;;;;;;3.57;1.90;;;;;;;13.94;42.39;95888.25;5016304;28;20550;-67
2021/04/11 04:23:03;;;;;;;3.90;2.00;;;;;;;13.97;42.53;95881.78;5017166;28;20500;-67
2021/04/11 04:25:50;;;;;;;2.10;1.83;;;;;;;13.96;42.49;95888.06;5006246;28;20415;-68
2021/04/11 04:28:40;;;;;;;2.50;2.00;;;;;;;13.92;42.82;95890.28;5013320;28;20419;-69
2021/04/11 04:31:15;;;;;;;5.10;1.60;;;;;;;14.00;42.47;95888.44;5012844;28;20477;-68
2021/04/11 04:33:47;;;;;;;3.00;1.73;;;;;;;14.00;42.54;95886.63;5012217;28;20447;-68
2021/04/11 04:36:31;;;;;;;2.23;1.90;;;;;;;14.00;42.46;95889.25;5013012;28;20957;-68
2021/04/11 04:39:09;;;;;;;12.40;2.00;;;;;;;13.86;42.95;95890.31;5012187;28;20801;-67
2021/04/11 04:41:41;;;;;;;4.40;1.53;;;;;;;13.92;42.72;95890.28;5028147;28;20665;-67
2021/04/11 04:44:22;;;;;;;1.97;1.77;;;;;;;13.94;42.76;95880.38;5002871;28;20451;-69
2021/04/11 04:47:08;;;;;;;2.40;1.80;;;;;;;14.04;42.80;95881.75;5014903;28;20427;-67
2021/04/11 04:49:34;;;;;;;3.50;1.80;;;;;;;14.06;42.64;95882.38;5006523;28;20808;-67
2021/04/11 04:52:05;;;;;;;2.80;1.87;;;;;;;14.06;42.90;95880.53;5012334;28;20634;-67
2021/04/11 04:54:46;;;;;;;9.60;1.70;;;;;;;14.02;42.84;95884.59;5012787;28;20208;-67
2021/04/11 04:57:20;;;;;;;3.00;1.90;;;;;;;14.01;42.94;95885.63;5012812;28;20433;-67
2021/04/11 05:00:14;;;;;;;2.77;1.53;;;;;;;14.06;42.94;95888.44;5011675;28;20820;-68
2021/04/11 05:02:49;;;;;;;2.37;1.77;;;;;;;14.07;42.90;95881.34;5011450;28;20852;-68
2021/04/11 05:05:16;;;;;;;2.43;1.73;;;;;;;14.12;42.61;95881.53;5012267;28;20422;-67
2021/04/11 05:07:47;;;;;;;3.80;1.97;;;;;;;14.12;42.66;95884.97;5027026;28;20427;-67
2021/04/11 05:10:16;;;;;;;2.87;1.53;;;;;;;14.06;42.81;95885.78;4985608;28;20820;-68
2021/04/11 05:12:45;;;;;;;3.37;2.03;;;;;;;14.12;42.95;95892.06;5027766;28;20502;-66
2021/04/11 05:15:13;;;;;;;4.97;2.43;;;;;;;14.15;42.98;95889.03;5012126;28;20934;-66
2021/04/11 05:17:53;;;;;;;2.53;1.70;;;;;;;14.12;43.00;95884.97;5020448;28;20431;-68
2021/04/11 05:20:24;;;;;;;3.33;2.07;;;;;;;14.15;42.95;95889.03;5014690;28;20458;-70
2021/04/11 05:23:00;;;;;;;3.90;2.30;;;;;;;14.20;42.89;95881.31;5006190;28;20423;-71
2021/04/11 05:25:46;;;;;;;4.63;2.10;;;;;;;14.26;42.69;95890.22;5005142;28;20963;-67
2021/04/11 05:28:16;;;;;;;3.10;1.77;;;;;;;14.25;42.80;95892.03;5029724;28;20421;-67
2021/04/11 05:30:48;;;;;;;3.90;1.70;;;;;;;14.28;42.59;95894.25;5030637;28;20426;-65
2021/04/11 05:33:18;;;;;;;1.50;1.40;;;;;;;14.28;42.58;95888.97;5030649;28;20593;-67
2021/04/11 05:35:44;;;;;;;3.43;1.63;;;;;;;14.27;42.64;95897.91;5030892;28;20430;-67
2021/04/11 05:38:21;;;;;;;2.00;1.80;;;;;;;14.35;42.70;95896.06;5030483;28;20516;-68
2021/04/11 05:40:53;;;;;;;2.00;1.80;;;;;;;14.34;42.62;95897.09;5031433;28;20466;-67
2021/04/11 05:43:34;;;;;;;2.10;1.67;;;;;;;14.34;42.82;95903.16;5014309;28;20438;-66
2021/04/11 05:46:14;;;;;;;2.90;1.53;;;;;;;14.53;42.44;95903.31;5030437;28;20422;-67
2021/04/11 05:48:44;;;;;;;3.77;1.80;;;;;;;14.63;42.31;95897.56;5032150;28;20415;-69
2021/04/11 05:51:12;;;;;;;2.43;1.80;;;;;;;14.59;42.25;95905.91;5031714;28;20517;-67
2021/04/11 05:53:51;;;;;;;4.83;1.87;;;;;;;14.53;42.17;95900.66;5032137;28;20945;-68
2021/04/11 05:56:39;;;;;;;2.20;1.50;;;;;;;14.70;41.96;95895.75;5029559;28;20564;-67
2021/04/11 05:59:09;;;;;;;3.43;1.87;;;;;;;14.64;42.05;95897.38;5013566;28;20445;-68
2021/04/11 06:01:41;;;;;;;3.87;1.87;;;;;;;14.81;41.83;95897.72;5030011;28;20458;-67
2021/04/11 06:04:12;;;;;;;3.87;1.70;;;;;;;14.62;42.32;95903.88;5031268;28;20485;-68
2021/04/11 06:06:48;;;;;;;1.40;1.30;;;;;;;14.93;41.69;95897.88;5030165;28;20423;-68
2021/04/11 06:09:17;;;;;;;5.57;2.47;;;;;;;15.08;41.40;95900.22;5027609;28;20450;-69
2021/04/11 06:11:57;;;;;;;2.03;1.43;;;;;;;15.21;41.26;95901.94;5023461;28;20917;-68
2021/04/11 06:14:28;;;;;;;5.13;1.60;;;;;;;15.26;41.19;95896.84;5030746;28;20756;-66
2021/04/11 06:16:54;;;;;;;2.30;1.63;;;;;;;15.18;40.94;95897.91;5031615;28;20461;-67
2021/04/11 06:19:20;;;;;;;5.67;1.83;;;;;;;15.34;41.08;95901.84;5007309;28;20427;-67
2021/04/11 06:22:18;;;;;;;2.30;1.77;;;;;;;15.35;40.89;95894.75;5030399;28;20454;-69
2021/04/11 06:24:43;;;;;;;2.17;1.40;;;;;;;15.46;40.60;95891.41;4998698;28;20443;-67
2021/04/11 06:27:46;;;;;;;2.70;1.90;;;;;;;15.55;40.46;95884.03;5030518;28;20943;-68
2021/04/11 06:30:19;;;;;;;2.00;1.57;;;;;;;15.73;40.23;95885.91;5033438;28;20197;-69
2021/04/11 06:33:02;;;;;;;4.07;1.50;;;;;;;15.52;40.65;95887.91;5033638;28;20480;-68
2021/04/11 06:35:38;;;;;;;2.23;1.60;;;;;;;15.99;39.98;95876.16;5030839;28;20480;-67
2021/04/11 06:38:04;;;;;;;2.57;1.70;;;;;;;16.26;39.53;95873.19;5030479;28;20430;-68
2021/04/11 06:40:39;;;;;;;5.77;1.83;;;;;;;16.56;39.07;95875.09;5030359;28;20458;-67
2021/04/11 06:43:17;;;;;;;3.80;2.00;;;;;;;16.65;38.76;95883.53;5030708;28;20425;-68
2021/04/11 06:46:14;;;;;;;3.07;1.33;;;;;;;16.68;39.00;95873.31;5031231;28;20756;-67
2021/04/11 06:48:51;;;;;;;2.10;1.67;;;;;;;16.87;38.62;95871.44;5003947;28;20437;-68
2021/04/11 06:51:35;;;;;;;4.63;1.57;;;;;;;17.25;38.13;95872.16;5029693;28;20422;-67
2021/04/11 06:54:28;;;;;;;2.60;1.70;;;;;;;17.40;37.66;95874.34;5029792;28;20449;-67
2021/04/11 06:57:18;;;;;;;2.53;1.80;;;;;;;17.58;37.16;95870.81;5029931;28;20850;-69
2021/04/11 07:00:05;;;;;;;2.30;1.67;;;;;;;17.49;37.26;95872.97;5030910;28;20434;-68
2021/04/11 07:03:05;;;;;;;2.33;1.70;;;;;;;17.37;37.20;95869.50;5034048;28;20511;-67
2021/04/11 07:05:49;;;;;;;13.67;7.47;;;;;;;17.61;37.10;95874.81;5030230;28;20507;-68
2021/04/11 07:08:34;;;;;;;13.63;1.90;;;;;;;17.52;36.60;95870.91;5031828;28;20515;-69
2021/04/11 07:11:08;;;;;;;4.73;1.10;;;;;;;17.42;36.35;95868.81;5032991;28;20422;-66
2021/04/11 07:13:37;;;;;;;5.40;1.93;;;;;;;17.46;36.37;95865.47;5034783;28;20441;-67
2021/04/11 07:16:27;;;;;;;3.37;1.80;;;;;;;17.45;36.68;95869.16;5034469;28;20419;-68
2021/04/11 07:19:11;;;;;;;1.83;1.63;;;;;;;17.37;36.58;95874.00;5028599;28;20592;-67
2021/04/11 07:22:28;;;;;;;1.67;1.57;;;;;;;17.71;36.02;95879.56;5033335;28;20511;-67
2021/04/11 07:24:59;;;;;;;1.53;1.30;;;;;;;17.81;36.01;95869.19;5000875;28;20462;-67
2021/04/11 07:27:58;;;;;;;2.90;1.47;;;;;;;17.94;35.56;95874.25;5032373;28;20991;-68
2021/04/11 07:30:50;;;;;;;2.67;1.70;;;;;;;18.25;35.21;95880.25;4993888;28;20426;-67
2021/04/11 07:33:53;;;;;;;3.57;1.83;;;;;;;18.07;35.21;95885.69;5033103;28;20528;-69
2021/04/11 07:36:18;;;;;;;1.40;1.30;;;;;;;18.35;35.06;95881.50;5034342;28;20414;-67
2021/04/11 07:38:56;;;;;;;2.80;1.50;;;;;;;18.41;34.84;95876.06;5032861;28;20940;-67
2021/04/11 07:41:40;;;;;;;3.50;1.93;;;;;;;18.37;34.48;95882.88;5034285;28;20234;-69
2021/04/11 07:44:24;;;;;;;3.30;1.40;;;;;;;18.20;35.09;95879.34;5033484;28;20446;-69
2021/04/11 07:46:59;;;;;;;2.13;1.40;;;;;;;18.91;33.84;95878.28;5033869;28;20426;-68
2021/04/11 07:49:31;;;;;;;2.60;1.33;;;;;;;19.27;33.55;95884.28;5032678;28;20426;-68
2021/04/11 07:52:28;;;;;;;1.83;1.50;;;;;;;18.56;34.89;95886.16;5033918;28;20459;-69
2021/04/11 07:55:19;;;;;;;3.57;1.70;;;;;;;18.46;35.15;95875.34;5033103;28;20533;-67
2021/04/11 07:58:22;;;;;;;4.27;3.00;;;;;;;19.07;34.25;95887.41;5032172;28;20427;-68
2021/04/11 08:01:08;;;;;;;2.50;1.40;;;;;;;18.67;34.79;95884.53;5034081;28;20489;-69
2021/04/11 08:03:58;;;;;;;2.17;1.80;;;;;;;19.11;34.17;95881.38;5035897;28;20450;-67
2021/04/11 08:06:24;;;;;;;5.50;2.50;;;;;;;18.96;34.65;95886.41;5036080;28;20414;-66
2021/04/11 08:09:13;;;;;;;5.47;1.30;;;;;;;18.94;34.65;95880.50;5028344;28;20782;-65
2021/04/11 08:12:15;;;;;;;2.70;1.30;;;;;;;18.79;34.88;95887.13;5034422;28;20188;-67
2021/04/11 08:14:52;;;;;;;2.13;1.40;;;;;;;18.73;34.97;95882.78;5037941;28;20454;-66
2021/04/11 08:17:37;;;;;;;3.47;1.20;;;;;;;19.04;34.49;95883.34;5035497;28;20449;-67
2021/04/11 08:20:13;;;;;;;3.60;1.07;;;;;;;18.85;34.99;95888.00;5034936;28;20422;-67
2021/04/11 08:22:50;;;;;;;2.90;1.00;;;;;;;19.17;34.22;95880.38;5036727;28;20430;-70
2021/04/11 08:25:28;;;;;;;1.93;1.10;;;;;;;19.32;34.06;95873.72;5036615;28;20430;-67
2021/04/11 08:28:23;;;;;;;3.23;1.10;;;;;;;19.58;33.40;95869.66;5033570;28;20429;-67
2021/04/11 08:30:55;;;;;;;2.10;1.10;;;;;;;19.70;33.18;95882.03;5036427;28;20525;-69
2021/04/11 08:33:41;;;;;;;2.47;1.30;;;;;;;19.82;33.06;95879.28;5027576;28;20464;-68
2021/04/11 08:36:07;;;;;;;1.17;1.00;;;;;;;20.06;32.59;95874.59;5028788;28;20431;-70
2021/04/11 08:38:57;;;;;;;1.70;1.30;;;;;;;19.77;33.28;95886.16;5037881;28;20490;-67
2021/04/11 08:41:41;;;;;;;1.80;0.83;;;;;;;19.62;33.37;95875.28;5018935;28;20207;-68
2021/04/11 08:44:09;;;;;;;1.90;1.30;;;;;;;19.57;33.50;95872.53;5036720;28;20601;-67
2021/04/11 08:46:35;;;;;;;1.70;1.00;;;;;;;19.63;33.30;95880.34;5031315;28;20540;-68
2021/04/11 08:49:44;;;;;;;1.50;1.40;;;;;;;18.87;34.58;95881.44;5038372;28;20455;-68
2021/04/11 08:52:27;;;;;;;1.70;1.13;;;;;;;19.02;34.54;95877.50;5000722;28;20200;-69
2021/04/11 08:55:03;;;;;;;3.67;1.13;;;;;;;19.08;34.39;95883.69;5037004;28;20457;-67
2021/04/11 08:57:54;;;;;;;3.20;1.30;;;;;;;18.62;35.31;95879.09;5035406;28;20488;-68
2021/04/11 09:00:32;;;;;;;2.80;0.90;;;;;;;18.42;35.63;95884.81;5037312;28;20450;-70
2021/04/11 09:03:21;;;;;;;3.47;1.37;;;;;;;18.34;35.65;95887.84;5026919;28;20422;-68
2021/04/11 09:05:50;;;;;;;1.67;1.03;;;;;;;18.66;35.32;95890.88;5030786;28;20897;-68
2021/04/11 09:08:21;;;;;;;7.33;4.03;;;;;;;18.47;35.55;95884.91;5031566;28;20534;-68
2021/04/11 09:10:54;;;;;;;2.00;1.10;;;;;;;19.14;34.49;95885.38;5031267;28;20971;-66
2021/04/11 09:13:39;;;;;;;5.87;1.40;;;;;;;19.52;33.93;95885.75;5031633;28;20446;-69
2021/04/11 09:16:15;;;;;;;3.00;1.00;;;;;;;18.15;35.85;95885.31;5030230;28;20764;-67
2021/04/11 09:18:50;;;;;;;1.60;1.20;;;;;;;17.77;36.42;95887.41;5020413;28;20427;-67
2021/04/11 09:21:41;;;;;;;2.03;1.30;;;;;;;17.95;36.41;95891.78;5031943;28;20822;-69
2021/04/11 09:24:14;;;;;;;2.43;1.30;;;;;;;18.66;35.46;95890.03;5032144;28;20509;-68
2021/04/11 09:26:58;;;;;;;3.27;1.20;;;;;;;18.23;35.98;95887.63;5028002;28;20441;-70
2021/04/11 09:29:47;;;;;;;2.27;1.50;;;;;;;18.75;35.36;95887.84;5032226;28;20417;-68
2021/04/11 09:32:57;;;;;;;3.20;1.40;;;;;;;19.10;34.84;95886.91;5030271;28;20509;-69
2021/04/11 09:35:51;;;;;;;2.40;1.10;;;;;;;19.43;33.86;95880.03;4993608;28;20874;-67
2021/04/11 09:38:45;;;;;;;7.20;1.27;;;;;;;19.44;34.06;95878.97;5014336;28;20486;-69
2021/04/11 09:41:43;;;;;;;3.10;1.17;;;;;;;19.78;33.13;95878.97;5031109;28;20458;-67
2021/04/11 09:44:27;;;;;;;2.97;1.57;;;;;;;19.92;33.15;95888.25;5029845;28;20554;-68
2021/04/11 09:47:12;;;;;;;4.27;1.37;;;;;;;20.35;32.33;95879.78;5030871;28;20932;-68
2021/04/11 09:50:02;;;;;;;2.13;1.20;;;;;;;20.50;32.42;95874.63;5031509;28;20510;-68
2021/04/11 09:53:08;;;;;;;3.20;1.37;;;;;;;19.52;33.42;95873.25;5031728;28;20429;-67
2021/04/11 09:55:37;;;;;;;3.57;1.30;;;;;;;20.16;32.63;95865.97;5030666;28;20415;-67
2021/04/11 09:58:27;;;;;;;2.97;1.20;;;;;;;19.94;32.78;95872.03;5029049;28;20591;-68
2021/04/11 10:01:34;;;;;;;1.60;1.33;;;;;;;19.57;33.62;95873.34;5031496;28;20806;-69
2021/04/11 10:04:16;;;;;;;2.07;1.40;;;;;;;20.03;32.93;95867.13;4969346;28;20551;-67
2021/04/11 10:06:59;;;;;;;5.27;1.40;;;;;;;19.44;33.14;95863.84;4963205;28;20434;-68
2021/04/11 10:09:31;;;;;;;1.90;1.20;;;;;;;20.77;31.89;95860.56;4963159;28;20548;-69
2021/04/11 10:12:12;;;;;;;4.07;1.70;;;;;;;21.00;31.68;95859.50;4975410;28;20528;-67
2021/04/11 10:14:56;;;;;;;4.50;1.20;;;;;;;20.63;31.83;95846.84;4962505;28;20464;-64
2021/04/11 10:17:41;;;;;;;3.00;1.70;;;;;;;19.91;32.60;95851.28;4969026;28;20465;-67
2021/04/11 10:20:12;;;;;;;1.77;1.10;;;;;;;19.75;32.57;95866.97;4951522;28;20417;-68
2021/04/11 10:22:51;;;;;;;4.00;1.60;;;;;;;20.87;31.00;95849.25;4969828;28;20434;-66
2021/04/11 10:25:35;;;;;;;1.83;1.30;;;;;;;19.87;32.08;95861.56;4962089;28;20860;-68
2021/04/11 10:28:30;;;;;;;8.17;1.57;;;;;;;19.50;32.48;95864.72;4969473;28;20428;-68
2021/04/11 10:31:39;;;;;;;5.80;1.50;;;;;;;19.29;32.66;95869.72;4969244;28;20853;-68
2021/04/11 10:34:32;;;;;;;2.47;1.60;;;;;;;19.68;32.07;95858.34;4961793;28;20532;-67
2021/04/11 10:37:06;;;;;;;3.20;1.27;;;;;;;19.25;32.53;95867.78;4964908;28;20426;-68
2021/04/11 10:39:57;;;;;;;3.00;1.50;;;;;;;19.18;32.88;95849.34;4964978;28;20434;-66
2021/04/11 10:42:42;;;;;;;3.40;1.67;;;;;;;18.42;33.51;95856.47;5035400;28;20466;-68
2021/04/11 10:45:22;;;;;;;3.50;1.37;;;;;;;19.25;32.67;95849.19;5035239;28;20948;-70
2021/04/11 10:48:10;;;;;;;2.90;1.20;;;;;;;19.31;32.35;95856.19;5033624;28;20844;-68
2021/04/11 10:50:58;;;;;;;1.80;1.20;;;;;;;19.38;32.38;95856.03;5005062;28;20626;-68
2021/04/11 10:53:32;;;;;;;2.10;1.37;;;;;;;18.69;33.31;95853.25;4997220;28;20443;-68
2021/04/11 10:56:27;;;;;;;5.10;1.83;;;;;;;19.09;32.97;95862.22;5033621;28;20456;-66
2021/04/11 10:59:13;;;;;;;4.50;1.37;;;;;;;19.01;32.92;95873.22;5024771;28;20496;-68
2021/04/11 11:01:50;;;;;;;1.87;1.27;;;;;;;19.00;33.17;95861.78;5032755;28;20461;-68
2021/04/11 11:04:51;;;;;;;1.77;1.63;;;;;;;19.78;32.04;95860.34;5031664;28;21217;-68
2021/04/11 11:07:42;;;;;;;1.57;1.30;;;;;;;19.21;32.91;95864.00;5010789;28;20504;-68
2021/04/11 11:10:18;;;;;;;3.10;1.60;;;;;;;18.30;34.42;95865.47;5030903;28;20441;-68
2021/04/11 11:12:44;;;;;;;3.27;1.57;;;;;;;18.88;33.48;95861.00;5033946;28;20430;-69
2021/04/11 11:15:22;;;;;;;2.43;1.87;;;;;;;19.02;33.39;95867.66;5015673;28;20985;-69
2021/04/11 11:18:17;;;;;;;1.93;1.60;;;;;;;19.23;33.34;95852.06;5030163;28;20195;-66
2021/04/11 11:20:56;;;;;;;2.70;1.60;;;;;;;19.48;32.57;95843.72;5031661;28;20457;-68
2021/04/11 11:23:49;;;;;;;3.50;1.90;;;;;;;18.94;33.57;95854.78;5034347;28;20442;-69
2021/04/11 11:26:52;;;;;;;1.40;1.30;;;;;;;20.15;31.76;95835.91;5027373;28;20753;-69
2021/04/11 11:29:37;;;;;;;3.67;1.80;;;;;;;20.17;32.14;95838.28;5033207;28;20975;-68
2021/04/11 11:32:25;;;;;;;2.13;1.60;;;;;;;20.54;31.46;95835.03;5033578;28;20552;-66
2021/04/11 11:34:59;;;;;;;2.67;1.70;;;;;;;21.63;29.50;95826.97;5032661;28;20585;-66
2021/04/11 11:37:28;;;;;;;2.90;2.50;;;;;;;21.70;29.29;95831.28;5032777;28;20455;-68
2021/04/11 11:40:06;;;;;;;8.50;1.60;;;;;;;21.23;30.64;95832.78;5033808;28;20426;-68
2021/04/11 11:42:38;;;;;;;4.73;1.93;;;;;;;21.90;28.85;95833.25;5032406;28;20437;-69
2021/04/11 11:45:07;;;;;;;3.00;1.90;;;;;;;20.96;30.77;95829.09;5033664;28;20961;-70
2021/04/11 11:47:38;;;;;;;4.77;1.77;;;;;;;21.32;30.29;95820.59;5033737;28;20436;-68
2021/04/11 11:50:06;;;;;;;2.60;1.60;;;;;;;21.79;29.59;95825.22;5032188;28;20955;-66
2021/04/11 11:52:49;;;;;;;3.63;1.80;;;;;;;22.15;28.99;95810.44;5032290;28;20980;-69
2021/04/11 11:55:23;;;;;;;2.47;1.50;;;;;;;22.81;28.70;95807.19;5032534;28;21004;-69
2021/04/11 11:58:03;;;;;;;2.30;2.10;;;;;;;23.77;26.99;95812.03;5032632;28;20820;-69
2021/04/11 12:00:35;;;;;;;2.60;1.73;;;;;;;23.68;27.30;95800.28;5032413;28;21009;-67
2021/04/11 12:03:26;;;;;;;2.70;1.50;;;;;;;24.85;25.60;95791.25;5031993;28;20477;-69
2021/04/11 12:06:07;;;;;;;3.57;1.63;;;;;;;24.99;25.25;95797.59;5033317;28;20415;-68
2021/04/11 12:08:58;;;;;;;3.33;1.50;;;;;;;24.96;25.05;95797.34;5020382;28;20862;-68
2021/04/11 12:11:30;;;;;;;3.03;1.60;;;;;;;25.13;24.61;95799.63;5015819;28;20423;-68
2021/04/11 12:14:00;;;;;;;2.90;1.30;;;;;;;24.81;24.88;95790.22;5032671;28;20449;-69
2021/04/11 12:16:33;;;;;;;4.50;2.00;;;;;;;24.91;24.56;95792.84;5031876;28;20427;-68
2021/04/11 12:19:21;;;;;;;2.30;1.60;;;;;;;24.67;24.73;95788.13;5027056;28;20841;-66